sensor_id;sensor_type;location;lat;lon;timestamp;temperature;humidity
18741;DHT22;9499;52.472;13.448;2023-07-24T00:02:12;20.40;1.00
18741;DHT22;9499;52.472;13.448;2023-07-24T00:04:40;20.40;1.00
18741;DHT22;9499;52.472;13.448;2023-07-24T00:07:07;20.40;1.00
18741;DHT22;9499;52.472;13.448;2023-07-24T00:09:33;20.40;1.00
18741;DHT22;9499;52.472;13.448;2023-07-24T00:12:00;20.40;1.00
18741;DHT22;9499;52.472;13.448;2023-07-24T00:14:26;20.40;98.30
18741;DHT22;9499;52.472;13.448;2023-07-24T00:16:52;20.40;99.90
18741;DHT22;9499;52.472;13.448;2023-07-24T00:19:19;20.40;99.90
18741;DHT22;9499;52.472;13.448;2023-07-24T00:21:47;20.40;99.90
18741;DHT22;9499;52.472;13.448;2023-07-24T00:24:13;20.40;1.00
18741;DHT22;9499;52.472;13.448;2023-07-24T00:26:40;20.40;29.50
18741;DHT22;9499;52.472;13.448;2023-07-24T00:29:06;20.40;12.20
18741;DHT22;9499;52.472;13.448;2023-07-24T00:31:33;20.40;7.40
18741;DHT22;9499;52.472;13.448;2023-07-24T00:33:59;20.40;1.00
18741;DHT22;9499;52.472;13.448;2023-07-24T00:36:26;20.40;1.00
18741;DHT22;9499;52.472;13.448;2023-07-24T00:38:54;20.40;1.00
18741;DHT22;9499;52.472;13.448;2023-07-24T00:41:20;20.40;1.00
18741;DHT22;9499;52.472;13.448;2023-07-24T00:43:46;20.50;1.00
18741;DHT22;9499;52.472;13.448;2023-07-24T00:46:14;20.50;99.90
18741;DHT22;9499;52.472;13.448;2023-07-24T00:48:40;20.50;99.90
18741;DHT22;9499;52.472;13.448;2023-07-24T00:51:07;20.40;99.90
18741;DHT22;9499;52.472;13.448;2023-07-24T00:53:34;20.40;15.30
18741;DHT22;9499;52.472;13.448;2023-07-24T00:56:02;20.40;61.20
18741;DHT22;9499;52.472;13.448;2023-07-24T00:58:29;20.40;1.00
18741;DHT22;9499;52.472;13.448;2023-07-24T01:00:55;20.40;1.00
18741;DHT22;9499;52.472;13.448;2023-07-24T01:03:22;20.40;1.00
18741;DHT22;9499;52.472;13.448;2023-07-24T01:05:54;20.40;1.00
18741;DHT22;9499;52.472;13.448;2023-07-24T01:08:21;20.30;99.90
18741;DHT22;9499;52.472;13.448;2023-07-24T01:10:47;20.30;99.90
18741;DHT22;9499;52.472;13.448;2023-07-24T01:13:19;20.30;99.90
18741;DHT22;9499;52.472;13.448;2023-07-24T01:15:54;20.30;93.10
18741;DHT22;9499;52.472;13.448;2023-07-24T01:18:22;20.30;99.90
18741;DHT22;9499;52.472;13.448;2023-07-24T01:20:52;20.30;99.90
18741;DHT22;9499;52.472;13.448;2023-07-24T01:23:30;20.40;1.00
18741;DHT22;9499;52.472;13.448;2023-07-24T01:26:03;20.30;1.00
18741;DHT22;9499;52.472;13.448;2023-07-24T01:28:30;20.30;1.00
18741;DHT22;9499;52.472;13.448;2023-07-24T01:30:56;20.40;1.00
18741;DHT22;9499;52.472;13.448;2023-07-24T01:33:23;20.30;1.00
18741;DHT22;9499;52.472;13.448;2023-07-24T01:35:54;20.30;1.00
18741;DHT22;9499;52.472;13.448;2023-07-24T01:38:21;20.30;50.60
18741;DHT22;9499;52.472;13.448;2023-07-24T01:40:51;20.30;99.90
18741;DHT22;9499;52.472;13.448;2023-07-24T01:43:19;20.20;1.00
18741;DHT22;9499;52.472;13.448;2023-07-24T01:45:45;20.20;1.00
18741;DHT22;9499;52.472;13.448;2023-07-24T01:48:12;20.10;1.00
18741;DHT22;9499;52.472;13.448;2023-07-24T01:50:38;20.10;1.00
18741;DHT22;9499;52.472;13.448;2023-07-24T01:53:05;20.10;1.00
18741;DHT22;9499;52.472;13.448;2023-07-24T01:55:31;20.10;1.00
18741;DHT22;9499;52.472;13.448;2023-07-24T01:57:58;20.10;99.90
18741;DHT22;9499;52.472;13.448;2023-07-24T02:00:25;20.00;1.00
18741;DHT22;9499;52.472;13.448;2023-07-24T02:02:52;20.10;1.00
18741;DHT22;9499;52.472;13.448;2023-07-24T02:05:18;20.00;1.00
18741;DHT22;9499;52.472;13.448;2023-07-24T02:07:45;20.00;1.00
18741;DHT22;9499;52.472;13.448;2023-07-24T02:10:11;20.10;1.00
18741;DHT22;9499;52.472;13.448;2023-07-24T02:12:38;20.10;1.00
18741;DHT22;9499;52.472;13.448;2023-07-24T02:15:05;20.00;1.00
18741;DHT22;9499;52.472;13.448;2023-07-24T02:17:33;20.00;1.00
18741;DHT22;9499;52.472;13.448;2023-07-24T02:20:00;20.00;1.00
18741;DHT22;9499;52.472;13.448;2023-07-24T02:22:26;20.00;99.90
18741;DHT22;9499;52.472;13.448;2023-07-24T02:24:53;20.00;99.90
18741;DHT22;9499;52.472;13.448;2023-07-24T02:27:26;20.00;1.00
18741;DHT22;9499;52.472;13.448;2023-07-24T02:29:53;20.00;1.00
18741;DHT22;9499;52.472;13.448;2023-07-24T02:32:20;20.10;1.00
18741;DHT22;9499;52.472;13.448;2023-07-24T02:34:50;20.10;1.00
18741;DHT22;9499;52.472;13.448;2023-07-24T02:37:16;20.10;1.00
18741;DHT22;9499;52.472;13.448;2023-07-24T02:39:43;20.10;7.40
18741;DHT22;9499;52.472;13.448;2023-07-24T02:42:09;20.10;99.90
18741;DHT22;9499;52.472;13.448;2023-07-24T02:44:36;20.10;99.90
18741;DHT22;9499;52.472;13.448;2023-07-24T02:47:03;20.10;1.00
18741;DHT22;9499;52.472;13.448;2023-07-24T02:49:30;20.10;1.00
18741;DHT22;9499;52.472;13.448;2023-07-24T02:51:57;20.00;1.00
18741;DHT22;9499;52.472;13.448;2023-07-24T02:54:25;20.00;1.00
18741;DHT22;9499;52.472;13.448;2023-07-24T02:56:51;20.00;1.00
18741;DHT22;9499;52.472;13.448;2023-07-24T02:59:18;20.00;1.00
18741;DHT22;9499;52.472;13.448;2023-07-24T03:01:44;20.10;1.00
18741;DHT22;9499;52.472;13.448;2023-07-24T03:04:11;20.10;1.00
18741;DHT22;9499;52.472;13.448;2023-07-24T03:06:39;20.10;30.00
18741;DHT22;9499;52.472;13.448;2023-07-24T03:09:07;20.10;22.30
18741;DHT22;9499;52.472;13.448;2023-07-24T03:11:33;20.10;86.10
18741;DHT22;9499;52.472;13.448;2023-07-24T03:14:00;20.10;58.10
18741;DHT22;9499;52.472;13.448;2023-07-24T03:16:26;20.10;99.90
18741;DHT22;9499;52.472;13.448;2023-07-24T03:18:53;20.10;99.90
18741;DHT22;9499;52.472;13.448;2023-07-24T03:21:20;20.10;99.90
18741;DHT22;9499;52.472;13.448;2023-07-24T03:23:46;20.10;99.90
18741;DHT22;9499;52.472;13.448;2023-07-24T03:26:14;20.10;99.90
18741;DHT22;9499;52.472;13.448;2023-07-24T03:28:41;20.10;99.90
18741;DHT22;9499;52.472;13.448;2023-07-24T03:31:07;20.10;99.90
18741;DHT22;9499;52.472;13.448;2023-07-24T03:33:34;20.10;99.90
18741;DHT22;9499;52.472;13.448;2023-07-24T03:36:00;20.10;99.90
18741;DHT22;9499;52.472;13.448;2023-07-24T03:38:27;20.10;99.90
18741;DHT22;9499;52.472;13.448;2023-07-24T03:40:53;20.10;99.90
18741;DHT22;9499;52.472;13.448;2023-07-24T03:43:21;20.10;99.90
18741;DHT22;9499;52.472;13.448;2023-07-24T03:45:48;20.10;99.90
18741;DHT22;9499;52.472;13.448;2023-07-24T03:48:14;20.10;1.00
18741;DHT22;9499;52.472;13.448;2023-07-24T03:50:41;20.10;1.00
18741;DHT22;9499;52.472;13.448;2023-07-24T03:53:07;20.10;1.00
18741;DHT22;9499;52.472;13.448;2023-07-24T03:55:34;20.10;1.00
18741;DHT22;9499;52.472;13.448;2023-07-24T03:58:00;20.10;1.00
18741;DHT22;9499;52.472;13.448;2023-07-24T04:00:28;20.10;1.00
18741;DHT22;9499;52.472;13.448;2023-07-24T04:02:55;20.10;1.00
18741;DHT22;9499;52.472;13.448;2023-07-24T04:05:21;20.10;1.00
18741;DHT22;9499;52.472;13.448;2023-07-24T04:07:48;20.00;1.00
18741;DHT22;9499;52.472;13.448;2023-07-24T04:10:14;19.90;1.00
18741;DHT22;9499;52.472;13.448;2023-07-24T04:12:41;19.90;1.00
18741;DHT22;9499;52.472;13.448;2023-07-24T04:15:08;19.80;1.00
18741;DHT22;9499;52.472;13.448;2023-07-24T04:17:36;19.80;1.00
18741;DHT22;9499;52.472;13.448;2023-07-24T04:20:05;19.90;1.00
18741;DHT22;9499;52.472;13.448;2023-07-24T04:22:32;19.90;1.00
18741;DHT22;9499;52.472;13.448;2023-07-24T04:24:58;19.80;1.00
18741;DHT22;9499;52.472;13.448;2023-07-24T04:27:24;19.90;1.00
18741;DHT22;9499;52.472;13.448;2023-07-24T04:29:51;19.90;1.00
18741;DHT22;9499;52.472;13.448;2023-07-24T04:32:17;19.90;1.00
18741;DHT22;9499;52.472;13.448;2023-07-24T04:34:45;19.90;1.00
18741;DHT22;9499;52.472;13.448;2023-07-24T04:37:12;20.00;1.00
18741;DHT22;9499;52.472;13.448;2023-07-24T04:39:38;20.10;1.00
18741;DHT22;9499;52.472;13.448;2023-07-24T04:42:05;20.10;1.00
18741;DHT22;9499;52.472;13.448;2023-07-24T04:44:31;20.10;1.00
18741;DHT22;9499;52.472;13.448;2023-07-24T04:46:58;20.10;1.00
18741;DHT22;9499;52.472;13.448;2023-07-24T04:49:25;20.20;1.00
18741;DHT22;9499;52.472;13.448;2023-07-24T04:51:52;20.20;1.00
18741;DHT22;9499;52.472;13.448;2023-07-24T04:54:19;20.20;1.00
18741;DHT22;9499;52.472;13.448;2023-07-24T04:56:45;20.20;1.00
18741;DHT22;9499;52.472;13.448;2023-07-24T04:59:12;20.30;1.00
18741;DHT22;9499;52.472;13.448;2023-07-24T05:01:38;20.30;1.00
18741;DHT22;9499;52.472;13.448;2023-07-24T05:04:05;20.30;1.00
18741;DHT22;9499;52.472;13.448;2023-07-24T05:06:31;20.40;1.00
18741;DHT22;9499;52.472;13.448;2023-07-24T05:08:59;20.40;1.00
18741;DHT22;9499;52.472;13.448;2023-07-24T05:11:25;20.40;1.00
18741;DHT22;9499;52.472;13.448;2023-07-24T05:13:52;20.50;1.00
18741;DHT22;9499;52.472;13.448;2023-07-24T05:16:18;20.60;1.00
18741;DHT22;9499;52.472;13.448;2023-07-24T05:18:45;20.70;1.00
18741;DHT22;9499;52.472;13.448;2023-07-24T05:21:11;20.60;1.00
18741;DHT22;9499;52.472;13.448;2023-07-24T05:23:38;20.60;1.00
18741;DHT22;9499;52.472;13.448;2023-07-24T05:26:06;20.60;1.00
18741;DHT22;9499;52.472;13.448;2023-07-24T05:28:33;20.70;1.00
18741;DHT22;9499;52.472;13.448;2023-07-24T05:31:00;20.70;1.00
18741;DHT22;9499;52.472;13.448;2023-07-24T05:33:28;20.80;1.00
18741;DHT22;9499;52.472;13.448;2023-07-24T05:35:57;20.80;1.00
18741;DHT22;9499;52.472;13.448;2023-07-24T05:38:24;20.90;1.00
18741;DHT22;9499;52.472;13.448;2023-07-24T05:40:54;21.00;1.00
18741;DHT22;9499;52.472;13.448;2023-07-24T05:43:22;21.00;1.00
18741;DHT22;9499;52.472;13.448;2023-07-24T05:45:49;21.00;1.00
18741;DHT22;9499;52.472;13.448;2023-07-24T05:48:15;21.00;1.00
18741;DHT22;9499;52.472;13.448;2023-07-24T05:50:42;21.00;1.00
18741;DHT22;9499;52.472;13.448;2023-07-24T05:53:08;21.10;1.00
18741;DHT22;9499;52.472;13.448;2023-07-24T05:55:35;21.10;1.00
18741;DHT22;9499;52.472;13.448;2023-07-24T05:58:01;21.10;1.00
18741;DHT22;9499;52.472;13.448;2023-07-24T06:00:29;21.10;1.00
18741;DHT22;9499;52.472;13.448;2023-07-24T06:02:56;21.20;1.00
18741;DHT22;9499;52.472;13.448;2023-07-24T06:05:22;21.30;1.00
18741;DHT22;9499;52.472;13.448;2023-07-24T06:07:49;21.40;1.00
18741;DHT22;9499;52.472;13.448;2023-07-24T06:10:15;21.40;1.00
18741;DHT22;9499;52.472;13.448;2023-07-24T06:12:42;21.40;1.00
18741;DHT22;9499;52.472;13.448;2023-07-24T06:15:09;21.50;1.00
18741;DHT22;9499;52.472;13.448;2023-07-24T06:17:37;21.50;1.00
18741;DHT22;9499;52.472;13.448;2023-07-24T06:20:04;21.50;99.90
18741;DHT22;9499;52.472;13.448;2023-07-24T06:22:31;21.50;99.90
18741;DHT22;9499;52.472;13.448;2023-07-24T06:24:57;21.50;99.90
18741;DHT22;9499;52.472;13.448;2023-07-24T06:27:24;21.60;99.90
18741;DHT22;9499;52.472;13.448;2023-07-24T06:29:50;21.60;99.90
18741;DHT22;9499;52.472;13.448;2023-07-24T06:32:17;21.70;58.20
18741;DHT22;9499;52.472;13.448;2023-07-24T06:34:45;21.70;43.60
18741;DHT22;9499;52.472;13.448;2023-07-24T06:37:11;21.80;1.70
18741;DHT22;9499;52.472;13.448;2023-07-24T06:39:38;21.80;90.30
18741;DHT22;9499;52.472;13.448;2023-07-24T06:42:04;21.90;1.00
18741;DHT22;9499;52.472;13.448;2023-07-24T06:44:31;21.90;1.00
18741;DHT22;9499;52.472;13.448;2023-07-24T06:46:57;21.90;1.00
18741;DHT22;9499;52.472;13.448;2023-07-24T06:49:24;22.00;1.00
18741;DHT22;9499;52.472;13.448;2023-07-24T06:51:51;22.00;1.00
18741;DHT22;9499;52.472;13.448;2023-07-24T06:54:18;22.10;1.00
18741;DHT22;9499;52.472;13.448;2023-07-24T06:56:44;22.20;99.90
18741;DHT22;9499;52.472;13.448;2023-07-24T06:59:11;22.20;99.90
18741;DHT22;9499;52.472;13.448;2023-07-24T07:01:37;22.20;1.00
18741;DHT22;9499;52.472;13.448;2023-07-24T07:04:04;22.30;94.70
18741;DHT22;9499;52.472;13.448;2023-07-24T07:06:30;22.40;1.00
18741;DHT22;9499;52.472;13.448;2023-07-24T07:08:58;22.40;1.00
18741;DHT22;9499;52.472;13.448;2023-07-24T07:11:24;22.50;1.00
18741;DHT22;9499;52.472;13.448;2023-07-24T07:13:51;22.50;1.00
18741;DHT22;9499;52.472;13.448;2023-07-24T07:16:17;22.50;1.00
18741;DHT22;9499;52.472;13.448;2023-07-24T07:18:44;22.60;1.00
18741;DHT22;9499;52.472;13.448;2023-07-24T07:21:10;22.60;22.60
18741;DHT22;9499;52.472;13.448;2023-07-24T07:23:37;22.60;1.00
18741;DHT22;9499;52.472;13.448;2023-07-24T07:26:05;22.70;1.00
18741;DHT22;9499;52.472;13.448;2023-07-24T07:28:31;22.80;20.90
18741;DHT22;9499;52.472;13.448;2023-07-24T07:30:58;22.90;1.00
18741;DHT22;9499;52.472;13.448;2023-07-24T07:33:24;23.00;1.00
18741;DHT22;9499;52.472;13.448;2023-07-24T07:35:51;23.00;1.00
18741;DHT22;9499;52.472;13.448;2023-07-24T07:38:17;23.10;99.90
18741;DHT22;9499;52.472;13.448;2023-07-24T07:40:44;23.10;74.50
18741;DHT22;9499;52.472;13.448;2023-07-24T07:43:11;23.10;1.00
18741;DHT22;9499;52.472;13.448;2023-07-24T07:45:38;23.20;99.90
18741;DHT22;9499;52.472;13.448;2023-07-24T07:48:05;23.30;1.00
18741;DHT22;9499;52.472;13.448;2023-07-24T07:50:32;23.30;1.00
18741;DHT22;9499;52.472;13.448;2023-07-24T07:52:58;23.30;1.00
18741;DHT22;9499;52.472;13.448;2023-07-24T07:55:24;23.40;1.00
18741;DHT22;9499;52.472;13.448;2023-07-24T07:57:51;23.40;1.00
18741;DHT22;9499;52.472;13.448;2023-07-24T08:00:19;23.50;1.00
18741;DHT22;9499;52.472;13.448;2023-07-24T08:02:45;23.50;99.90
18741;DHT22;9499;52.472;13.448;2023-07-24T08:05:12;23.60;1.00
18741;DHT22;9499;52.472;13.448;2023-07-24T08:07:38;23.60;6.50
18741;DHT22;9499;52.472;13.448;2023-07-24T08:10:05;23.60;1.00
18741;DHT22;9499;52.472;13.448;2023-07-24T08:12:32;23.70;1.00
18741;DHT22;9499;52.472;13.448;2023-07-24T08:14:59;23.70;1.00
18741;DHT22;9499;52.472;13.448;2023-07-24T08:17:27;23.80;99.90
18741;DHT22;9499;52.472;13.448;2023-07-24T08:19:53;23.80;99.90
18741;DHT22;9499;52.472;13.448;2023-07-24T08:22:20;23.90;99.90
18741;DHT22;9499;52.472;13.448;2023-07-24T08:24:48;24.00;99.90
18741;DHT22;9499;52.472;13.448;2023-07-24T08:27:15;24.00;95.60
18741;DHT22;9499;52.472;13.448;2023-07-24T08:29:42;24.10;77.70
18741;DHT22;9499;52.472;13.448;2023-07-24T08:32:08;24.10;99.90
18741;DHT22;9499;52.472;13.448;2023-07-24T08:34:36;24.20;1.00
18741;DHT22;9499;52.472;13.448;2023-07-24T08:37:03;24.30;1.00
18741;DHT22;9499;52.472;13.448;2023-07-24T08:39:30;24.30;1.00
18741;DHT22;9499;52.472;13.448;2023-07-24T08:41:57;24.40;1.00
18741;DHT22;9499;52.472;13.448;2023-07-24T08:44:25;24.50;1.00
18741;DHT22;9499;52.472;13.448;2023-07-24T08:46:56;24.50;1.00
18741;DHT22;9499;52.472;13.448;2023-07-24T08:49:23;24.40;1.00
18741;DHT22;9499;52.472;13.448;2023-07-24T08:51:52;24.40;1.00
18741;DHT22;9499;52.472;13.448;2023-07-24T08:54:20;24.40;1.00
18741;DHT22;9499;52.472;13.448;2023-07-24T08:56:47;24.40;1.00
18741;DHT22;9499;52.472;13.448;2023-07-24T08:59:15;24.60;1.00
18741;DHT22;9499;52.472;13.448;2023-07-24T09:01:42;24.70;1.00
18741;DHT22;9499;52.472;13.448;2023-07-24T09:04:08;24.70;1.00
18741;DHT22;9499;52.472;13.448;2023-07-24T09:06:36;24.80;1.00
18741;DHT22;9499;52.472;13.448;2023-07-24T09:09:12;24.80;99.90
18741;DHT22;9499;52.472;13.448;2023-07-24T09:11:45;24.90;99.90
18741;DHT22;9499;52.472;13.448;2023-07-24T09:14:20;24.90;99.90
18741;DHT22;9499;52.472;13.448;2023-07-24T09:16:46;24.90;99.90
18741;DHT22;9499;52.472;13.448;2023-07-24T09:19:17;25.00;98.80
18741;DHT22;9499;52.472;13.448;2023-07-24T09:21:43;25.10;99.90
18741;DHT22;9499;52.472;13.448;2023-07-24T09:24:13;25.10;99.90
18741;DHT22;9499;52.472;13.448;2023-07-24T09:26:50;25.10;99.90
18741;DHT22;9499;52.472;13.448;2023-07-24T09:29:17;25.20;48.10
18741;DHT22;9499;52.472;13.448;2023-07-24T09:31:44;25.30;80.10
18741;DHT22;9499;52.472;13.448;2023-07-24T09:34:15;25.40;1.00
18741;DHT22;9499;52.472;13.448;2023-07-24T09:36:42;25.30;1.00
18741;DHT22;9499;52.472;13.448;2023-07-24T09:39:09;25.30;1.00
18741;DHT22;9499;52.472;13.448;2023-07-24T09:41:38;25.30;1.00
18741;DHT22;9499;52.472;13.448;2023-07-24T09:44:05;25.40;1.00
18741;DHT22;9499;52.472;13.448;2023-07-24T09:46:32;25.40;1.00
18741;DHT22;9499;52.472;13.448;2023-07-24T09:48:59;25.50;1.00
18741;DHT22;9499;52.472;13.448;2023-07-24T09:51:28;25.50;1.00
18741;DHT22;9499;52.472;13.448;2023-07-24T09:53:56;25.60;1.00
18741;DHT22;9499;52.472;13.448;2023-07-24T09:56:25;25.70;1.00
18741;DHT22;9499;52.472;13.448;2023-07-24T09:58:53;25.60;1.00
18741;DHT22;9499;52.472;13.448;2023-07-24T10:01:21;25.60;1.00
18741;DHT22;9499;52.472;13.448;2023-07-24T10:03:49;25.70;1.00
18741;DHT22;9499;52.472;13.448;2023-07-24T10:06:17;25.90;1.00
18741;DHT22;9499;52.472;13.448;2023-07-24T10:08:44;25.90;99.90
18741;DHT22;9499;52.472;13.448;2023-07-24T10:11:12;25.90;1.00
18741;DHT22;9499;52.472;13.448;2023-07-24T10:13:39;25.90;99.90
18741;DHT22;9499;52.472;13.448;2023-07-24T10:16:07;26.10;99.90
18741;DHT22;9499;52.472;13.448;2023-07-24T10:18:35;26.30;99.90
18741;DHT22;9499;52.472;13.448;2023-07-24T10:21:09;26.40;99.90
18741;DHT22;9499;52.472;13.448;2023-07-24T10:23:37;26.60;99.90
18741;DHT22;9499;52.472;13.448;2023-07-24T10:26:07;26.80;99.90
18741;DHT22;9499;52.472;13.448;2023-07-24T10:28:35;27.00;63.00
18741;DHT22;9499;52.472;13.448;2023-07-24T10:31:04;27.00;18.00
18741;DHT22;9499;52.472;13.448;2023-07-24T10:33:36;27.20;1.00
18741;DHT22;9499;52.472;13.448;2023-07-24T10:36:10;27.30;1.00
18741;DHT22;9499;52.472;13.448;2023-07-24T10:38:40;27.40;1.00
18741;DHT22;9499;52.472;13.448;2023-07-24T10:41:08;27.50;1.00
18741;DHT22;9499;52.472;13.448;2023-07-24T10:43:42;27.60;1.00
18741;DHT22;9499;52.472;13.448;2023-07-24T10:46:09;27.60;1.00
18741;DHT22;9499;52.472;13.448;2023-07-24T10:48:37;27.60;1.00
18741;DHT22;9499;52.472;13.448;2023-07-24T10:51:08;27.40;1.00
18741;DHT22;9499;52.472;13.448;2023-07-24T10:53:35;27.30;1.00
18741;DHT22;9499;52.472;13.448;2023-07-24T10:56:02;27.30;1.00
18741;DHT22;9499;52.472;13.448;2023-07-24T10:58:29;27.30;1.00
18741;DHT22;9499;52.472;13.448;2023-07-24T11:00:56;27.40;1.00
18741;DHT22;9499;52.472;13.448;2023-07-24T11:03:25;27.30;1.00
18741;DHT22;9499;52.472;13.448;2023-07-24T11:05:54;27.40;1.00
18741;DHT22;9499;52.472;13.448;2023-07-24T11:08:21;27.40;1.00
18741;DHT22;9499;52.472;13.448;2023-07-24T11:10:48;27.60;1.00
18741;DHT22;9499;52.472;13.448;2023-07-24T11:13:16;27.70;1.00
18741;DHT22;9499;52.472;13.448;2023-07-24T11:15:43;27.80;1.00
18741;DHT22;9499;52.472;13.448;2023-07-24T11:18:09;28.00;1.00
18741;DHT22;9499;52.472;13.448;2023-07-24T11:20:37;28.10;1.00
18741;DHT22;9499;52.472;13.448;2023-07-24T11:23:05;28.30;1.00
18741;DHT22;9499;52.472;13.448;2023-07-24T11:25:32;28.40;1.00
18741;DHT22;9499;52.472;13.448;2023-07-24T11:27:59;28.50;1.00
18741;DHT22;9499;52.472;13.448;2023-07-24T11:30:25;28.50;1.00
18741;DHT22;9499;52.472;13.448;2023-07-24T11:32:52;28.60;1.00
18741;DHT22;9499;52.472;13.448;2023-07-24T11:35:19;28.60;1.00
18741;DHT22;9499;52.472;13.448;2023-07-24T11:37:47;28.50;1.00
18741;DHT22;9499;52.472;13.448;2023-07-24T11:40:15;28.30;1.00
18741;DHT22;9499;52.472;13.448;2023-07-24T11:42:43;28.20;1.00
18741;DHT22;9499;52.472;13.448;2023-07-24T11:45:10;28.10;1.00
18741;DHT22;9499;52.472;13.448;2023-07-24T11:47:44;28.20;1.00
18741;DHT22;9499;52.472;13.448;2023-07-24T11:50:11;28.30;1.00
18741;DHT22;9499;52.472;13.448;2023-07-24T11:52:39;28.30;1.00
18741;DHT22;9499;52.472;13.448;2023-07-24T11:55:07;28.20;1.00
18741;DHT22;9499;52.472;13.448;2023-07-24T11:57:35;28.20;1.00
18741;DHT22;9499;52.472;13.448;2023-07-24T12:00:02;28.10;1.00
18741;DHT22;9499;52.472;13.448;2023-07-24T12:02:29;28.10;1.00
18741;DHT22;9499;52.472;13.448;2023-07-24T12:04:59;28.10;1.00
18741;DHT22;9499;52.472;13.448;2023-07-24T12:07:31;28.20;1.00
18741;DHT22;9499;52.472;13.448;2023-07-24T12:09:59;28.10;99.90
18741;DHT22;9499;52.472;13.448;2023-07-24T12:12:25;28.00;99.90
18741;DHT22;9499;52.472;13.448;2023-07-24T12:14:53;28.10;99.90
18741;DHT22;9499;52.472;13.448;2023-07-24T12:17:19;27.90;99.90
18741;DHT22;9499;52.472;13.448;2023-07-24T12:19:46;27.80;99.90
18741;DHT22;9499;52.472;13.448;2023-07-24T12:22:13;27.80;99.90
18741;DHT22;9499;52.472;13.448;2023-07-24T12:24:39;27.70;99.90
18741;DHT22;9499;52.472;13.448;2023-07-24T12:27:06;27.60;99.90
18741;DHT22;9499;52.472;13.448;2023-07-24T12:29:32;27.50;99.90
18741;DHT22;9499;52.472;13.448;2023-07-24T12:32:00;27.50;99.90
18741;DHT22;9499;52.472;13.448;2023-07-24T12:34:27;27.50;99.90
18741;DHT22;9499;52.472;13.448;2023-07-24T12:36:53;27.10;1.00
18741;DHT22;9499;52.472;13.448;2023-07-24T12:39:20;26.60;1.00
18741;DHT22;9499;52.472;13.448;2023-07-24T12:41:46;26.30;1.00
18741;DHT22;9499;52.472;13.448;2023-07-24T12:44:13;26.00;1.00
18741;DHT22;9499;52.472;13.448;2023-07-24T12:46:39;25.70;1.00
18741;DHT22;9499;52.472;13.448;2023-07-24T12:49:07;25.60;17.80
18741;DHT22;9499;52.472;13.448;2023-07-24T12:51:33;25.60;99.90
18741;DHT22;9499;52.472;13.448;2023-07-24T12:54:00;25.60;99.90
18741;DHT22;9499;52.472;13.448;2023-07-24T12:56:27;25.50;1.00
18741;DHT22;9499;52.472;13.448;2023-07-24T12:58:53;25.30;1.00
18741;DHT22;9499;52.472;13.448;2023-07-24T13:01:20;25.30;99.90
18741;DHT22;9499;52.472;13.448;2023-07-24T13:03:46;25.30;99.90
18741;DHT22;9499;52.472;13.448;2023-07-24T13:06:14;25.20;1.00
18741;DHT22;9499;52.472;13.448;2023-07-24T13:08:41;25.00;1.00
18741;DHT22;9499;52.472;13.448;2023-07-24T13:11:07;24.90;99.90
18741;DHT22;9499;52.472;13.448;2023-07-24T13:13:34;24.80;1.00
18741;DHT22;9499;52.472;13.448;2023-07-24T13:16:01;24.80;99.90
18741;DHT22;9499;52.472;13.448;2023-07-24T13:18:28;24.70;99.90
18741;DHT22;9499;52.472;13.448;2023-07-24T13:20:55;24.80;99.90
18741;DHT22;9499;52.472;13.448;2023-07-24T13:23:23;24.80;1.00
18741;DHT22;9499;52.472;13.448;2023-07-24T13:25:50;24.80;99.90
18741;DHT22;9499;52.472;13.448;2023-07-24T13:28:17;24.80;1.00
18741;DHT22;9499;52.472;13.448;2023-07-24T13:30:43;24.90;1.00
18741;DHT22;9499;52.472;13.448;2023-07-24T13:33:10;24.90;1.00
18741;DHT22;9499;52.472;13.448;2023-07-24T13:35:37;25.00;99.90
18741;DHT22;9499;52.472;13.448;2023-07-24T13:38:03;25.10;99.90
18741;DHT22;9499;52.472;13.448;2023-07-24T13:40:31;25.10;99.90
18741;DHT22;9499;52.472;13.448;2023-07-24T13:42:57;25.50;99.90
18741;DHT22;9499;52.472;13.448;2023-07-24T13:45:24;25.80;1.00
18741;DHT22;9499;52.472;13.448;2023-07-24T13:47:50;26.20;1.00
18741;DHT22;9499;52.472;13.448;2023-07-24T13:50:17;26.50;1.00
18741;DHT22;9499;52.472;13.448;2023-07-24T13:52:43;26.80;99.90
18741;DHT22;9499;52.472;13.448;2023-07-24T13:55:10;27.00;99.90
18741;DHT22;9499;52.472;13.448;2023-07-24T13:57:38;26.80;63.70
18741;DHT22;9499;52.472;13.448;2023-07-24T14:00:05;26.60;99.90
18741;DHT22;9499;52.472;13.448;2023-07-24T14:02:32;26.40;99.90
18741;DHT22;9499;52.472;13.448;2023-07-24T14:04:59;26.20;99.90
18741;DHT22;9499;52.472;13.448;2023-07-24T14:07:25;26.20;1.00
18741;DHT22;9499;52.472;13.448;2023-07-24T14:09:52;26.20;99.90
18741;DHT22;9499;52.472;13.448;2023-07-24T14:12:18;26.20;1.00
18741;DHT22;9499;52.472;13.448;2023-07-24T14:14:46;26.20;1.00
18741;DHT22;9499;52.472;13.448;2023-07-24T14:17:12;26.10;1.00
18741;DHT22;9499;52.472;13.448;2023-07-24T14:19:40;26.00;1.00
18741;DHT22;9499;52.472;13.448;2023-07-24T14:22:06;26.10;1.00
18741;DHT22;9499;52.472;13.448;2023-07-24T14:24:33;26.10;99.90
18741;DHT22;9499;52.472;13.448;2023-07-24T14:26:59;26.20;1.00
18741;DHT22;9499;52.472;13.448;2023-07-24T14:29:26;26.20;1.00
18741;DHT22;9499;52.472;13.448;2023-07-24T14:31:54;26.20;1.00
18741;DHT22;9499;52.472;13.448;2023-07-24T14:34:20;26.20;1.00
18741;DHT22;9499;52.472;13.448;2023-07-24T14:36:47;26.10;1.00
18741;DHT22;9499;52.472;13.448;2023-07-24T14:39:13;26.00;1.00
18741;DHT22;9499;52.472;13.448;2023-07-24T14:41:40;25.90;1.00
18741;DHT22;9499;52.472;13.448;2023-07-24T14:44:06;25.90;91.40
18741;DHT22;9499;52.472;13.448;2023-07-24T14:46:33;25.90;99.90
18741;DHT22;9499;52.472;13.448;2023-07-24T14:49:00;25.90;99.90
18741;DHT22;9499;52.472;13.448;2023-07-24T14:51:27;25.90;1.00
18741;DHT22;9499;52.472;13.448;2023-07-24T14:53:54;25.90;1.00
18741;DHT22;9499;52.472;13.448;2023-07-24T14:56:21;25.90;99.90
18741;DHT22;9499;52.472;13.448;2023-07-24T14:58:47;25.80;1.00
18741;DHT22;9499;52.472;13.448;2023-07-24T15:01:14;25.80;99.90
18741;DHT22;9499;52.472;13.448;2023-07-24T15:03:40;25.80;1.00
18741;DHT22;9499;52.472;13.448;2023-07-24T15:06:08;25.70;1.00
18741;DHT22;9499;52.472;13.448;2023-07-24T15:08:34;25.70;1.00
18741;DHT22;9499;52.472;13.448;2023-07-24T15:11:01;25.60;99.90
18741;DHT22;9499;52.472;13.448;2023-07-24T15:13:28;25.50;1.00
18741;DHT22;9499;52.472;13.448;2023-07-24T15:15:54;25.50;99.90
18741;DHT22;9499;52.472;13.448;2023-07-24T15:18:21;25.50;99.90
18741;DHT22;9499;52.472;13.448;2023-07-24T15:20:47;25.50;99.90
18741;DHT22;9499;52.472;13.448;2023-07-24T15:23:15;25.60;99.90
18741;DHT22;9499;52.472;13.448;2023-07-24T15:25:43;25.60;99.90
18741;DHT22;9499;52.472;13.448;2023-07-24T15:28:09;25.60;45.60
18741;DHT22;9499;52.472;13.448;2023-07-24T15:30:36;25.60;63.90
18741;DHT22;9499;52.472;13.448;2023-07-24T15:33:03;25.50;1.00
18741;DHT22;9499;52.472;13.448;2023-07-24T15:35:29;25.70;1.00
18741;DHT22;9499;52.472;13.448;2023-07-24T15:37:56;25.80;1.00
18741;DHT22;9499;52.472;13.448;2023-07-24T15:40:23;25.90;1.00